createdAt,value
2023-03-26T00:01:25.104Z,21.53
2023-03-26T00:04:10.539Z,26.57
2023-03-26T00:06:56.031Z,22.53
2023-03-26T00:09:41.503Z,26.17
2023-03-26T00:12:26.738Z,25.50
2023-03-26T00:15:12.184Z,22.93
2023-03-26T00:18:01.464Z,24.67
2023-03-26T00:20:47.281Z,23.40
2023-03-26T00:23:35.081Z,26.83
2023-03-26T00:26:21.028Z,27.50
2023-03-26T00:29:06.738Z,28.73
2023-03-26T00:31:52.172Z,30.63
2023-03-26T00:34:37.494Z,24.57
2023-03-26T00:37:23.845Z,26.50
2023-03-26T00:40:10.242Z,25.53
2023-03-26T00:42:55.987Z,25.53
2023-03-26T00:45:41.591Z,24.73
2023-03-26T00:48:41.850Z,23.80
2023-03-26T00:51:30.230Z,23.73
2023-03-26T00:54:15.592Z,23.23
2023-03-26T00:57:01.016Z,26.03
2023-03-26T00:59:46.306Z,24.50
2023-03-26T01:02:31.596Z,21.97
2023-03-26T01:05:40.656Z,22.30
2023-03-26T01:08:33.147Z,28.03
2023-03-26T01:11:22.146Z,22.70
2023-03-26T01:14:11.847Z,24.80
2023-03-26T01:17:02.419Z,23.13
2023-03-26T01:20:07.556Z,24.23
2023-03-26T01:23:01.585Z,21.73
2023-03-26T01:25:56.575Z,24.07
2023-03-26T01:28:43.064Z,25.57
2023-03-26T01:31:48.910Z,24.93
2023-03-26T01:34:49.291Z,25.33
2023-03-26T01:37:49.007Z,27.80
2023-03-26T01:40:44.803Z,25.03
2023-03-26T01:43:53.680Z,25.37
2023-03-26T01:46:39.979Z,28.90
2023-03-26T01:49:28.006Z,24.27
2023-03-26T01:52:17.365Z,24.03
2023-03-26T01:55:02.699Z,19.83
2023-03-26T01:58:11.888Z,23.43
2023-03-26T02:01:10.978Z,24.23
2023-03-26T02:04:04.487Z,26.73
2023-03-26T02:07:19.711Z,24.30
2023-03-26T02:10:24.115Z,23.17
2023-03-26T02:13:10.638Z,27.03
2023-03-26T02:16:02.251Z,29.23
2023-03-26T02:18:48.945Z,25.57
2023-03-26T02:21:34.325Z,24.00
2023-03-26T02:24:19.817Z,28.83
2023-03-26T02:27:05.803Z,32.57
2023-03-26T02:29:50.747Z,24.03
2023-03-26T02:32:36.738Z,26.17
2023-03-26T02:35:22.492Z,26.53
2023-03-26T02:38:07.955Z,30.53
2023-03-26T02:40:54.128Z,30.70
2023-03-26T02:43:39.516Z,31.30
2023-03-26T02:46:24.309Z,32.90
2023-03-26T02:49:09.740Z,33.07
2023-03-26T02:51:54.995Z,38.30
2023-03-26T02:54:39.914Z,32.10
2023-03-26T02:57:25.364Z,40.03
2023-03-26T03:00:11.373Z,40.10
2023-03-26T03:02:56.552Z,29.37
2023-03-26T03:05:41.971Z,32.23
2023-03-26T03:08:28.110Z,34.10
2023-03-26T03:11:18.840Z,34.70
2023-03-26T03:14:04.435Z,36.63
2023-03-26T03:16:49.491Z,35.40
2023-03-26T03:19:35.114Z,43.87
2023-03-26T03:22:20.584Z,41.07
2023-03-26T03:25:06.398Z,44.30
2023-03-26T03:27:51.425Z,44.90
2023-03-26T03:30:37.208Z,47.27
2023-03-26T03:33:23.680Z,48.33
2023-03-26T03:36:20.329Z,49.83
2023-03-26T03:39:06.751Z,47.60
2023-03-26T03:41:51.564Z,49.53
2023-03-26T03:44:37.190Z,51.37
2023-03-26T03:47:22.251Z,48.93
2023-03-26T03:50:09.068Z,53.93
2023-03-26T03:52:54.627Z,51.47
2023-03-26T03:55:39.850Z,59.00
2023-03-26T03:58:26.438Z,54.80
2023-03-26T04:01:11.694Z,58.70
2023-03-26T04:03:58.310Z,52.83
2023-03-26T04:06:44.059Z,55.33
2023-03-26T04:09:29.257Z,55.67
2023-03-26T04:12:14.819Z,59.07
2023-03-26T04:15:00.304Z,50.77
2023-03-26T04:17:45.713Z,52.30
2023-03-26T04:20:31.125Z,47.70
2023-03-26T04:23:18.218Z,52.90
2023-03-26T04:26:06.260Z,53.50
2023-03-26T04:28:59.300Z,60.30
2023-03-26T04:31:44.694Z,46.53
2023-03-26T04:34:30.094Z,51.23
2023-03-26T04:37:29.201Z,50.63
2023-03-26T04:40:17.826Z,57.73
2023-03-26T04:43:03.251Z,46.60
2023-03-26T04:45:48.701Z,50.93
2023-03-26T04:48:33.629Z,48.37
2023-03-26T04:51:23.756Z,49.00
2023-03-26T04:54:10.784Z,48.57
2023-03-26T04:57:02.772Z,46.57
2023-03-26T04:59:48.238Z,52.17
2023-03-26T05:02:33.322Z,49.60
2023-03-26T05:05:18.820Z,42.13
2023-03-26T05:08:04.364Z,41.60
2023-03-26T05:10:49.613Z,46.60
2023-03-26T05:13:34.520Z,43.20
2023-03-26T05:16:19.796Z,45.40
2023-03-26T05:19:05.512Z,46.53
2023-03-26T05:21:51.426Z,50.60
2023-03-26T05:24:36.461Z,45.53
2023-03-26T05:27:21.484Z,44.87
2023-03-26T05:30:07.584Z,40.73
2023-03-26T05:32:53.159Z,45.50
2023-03-26T05:35:38.481Z,46.83
2023-03-26T05:38:23.630Z,44.87
2023-03-26T05:41:10.126Z,40.97
2023-03-26T05:43:55.884Z,38.77
2023-03-26T05:46:41.225Z,47.40
2023-03-26T05:49:26.775Z,45.57
2023-03-26T05:52:11.921Z,49.30
2023-03-26T05:54:57.315Z,38.27
2023-03-26T05:57:42.690Z,49.23
2023-03-26T06:00:28.513Z,46.80
2023-03-26T06:03:13.775Z,42.83
2023-03-26T06:05:59.445Z,42.90
2023-03-26T06:08:46.815Z,46.73
2023-03-26T06:11:32.257Z,46.67
2023-03-26T06:14:17.677Z,43.50
2023-03-26T06:17:03.668Z,45.33
2023-03-26T06:19:49.068Z,44.40
2023-03-26T06:22:34.518Z,48.90
2023-03-26T06:25:20.605Z,43.70
2023-03-26T06:28:05.830Z,54.40
2023-03-26T06:30:51.208Z,44.17
2023-03-26T06:33:36.525Z,44.93
2023-03-26T06:36:21.648Z,52.27
2023-03-26T06:39:07.543Z,49.83
2023-03-26T06:41:53.600Z,45.53
2023-03-26T06:44:38.884Z,43.03
2023-03-26T06:47:24.331Z,50.20
2023-03-26T06:50:10.688Z,46.23
2023-03-26T06:52:56.532Z,55.23
2023-03-26T06:55:41.865Z,48.63
2023-03-26T06:58:27.105Z,51.30
2023-03-26T07:01:12.510Z,50.23
2023-03-26T07:03:59.885Z,47.60
2023-03-26T07:06:45.247Z,47.07
2023-03-26T07:09:30.359Z,51.13
2023-03-26T07:12:15.643Z,51.10
2023-03-26T07:15:02.123Z,51.23
2023-03-26T07:17:47.570Z,52.43
2023-03-26T07:20:33.089Z,53.83
2023-03-26T07:23:18.948Z,54.10
2023-03-26T07:26:22.067Z,49.63
2023-03-26T07:29:12.002Z,55.40
2023-03-26T07:31:57.321Z,55.63
2023-03-26T07:34:45.446Z,51.80
2023-03-26T07:37:51.043Z,54.13
2023-03-26T07:40:55.072Z,47.63
2023-03-26T07:43:49.889Z,49.07
2023-03-26T07:46:35.318Z,52.77
2023-03-26T07:49:21.125Z,49.10
2023-03-26T07:52:06.383Z,47.77
2023-03-26T07:54:52.005Z,50.83
2023-03-26T07:57:40.052Z,49.07
2023-03-26T08:00:28.640Z,50.10
2023-03-26T08:03:19.629Z,48.70
2023-03-26T08:06:16.823Z,52.17
2023-03-26T08:09:17.351Z,49.97
2023-03-26T08:12:41.698Z,52.40
2023-03-26T08:15:33.055Z,48.37
2023-03-26T08:18:21.350Z,44.43
2023-03-26T08:21:06.873Z,42.27
2023-03-26T08:24:08.573Z,47.47
2023-03-26T08:27:18.045Z,45.17
2023-03-26T08:30:23.937Z,44.03
2023-03-26T08:33:20.736Z,42.87
2023-03-26T08:36:06.533Z,42.63
2023-03-26T08:38:51.800Z,42.27
2023-03-26T08:41:51.912Z,40.93
2023-03-26T08:44:54.939Z,45.47
2023-03-26T08:47:40.104Z,40.47
2023-03-26T08:51:06.915Z,44.67
2023-03-26T08:54:10.658Z,42.77
2023-03-26T08:57:05.925Z,44.10
2023-03-26T09:00:10.333Z,41.93
2023-03-26T09:03:08.414Z,45.70
2023-03-26T09:05:56.550Z,40.50
2023-03-26T09:09:19.164Z,49.07
2023-03-26T09:12:35.620Z,42.13
2023-03-26T09:15:39.414Z,42.07
2023-03-26T09:18:45.766Z,47.43
2023-03-26T09:22:08.214Z,39.77
2023-03-26T09:25:11.810Z,42.47
2023-03-26T09:28:00.115Z,42.37
2023-03-26T09:31:24.520Z,44.17
2023-03-26T09:34:28.223Z,40.33
2023-03-26T09:37:56.673Z,37.47
2023-03-26T09:41:01.647Z,43.47
2023-03-26T09:44:19.139Z,38.40
2023-03-26T09:47:27.746Z,39.80
2023-03-26T09:50:28.211Z,38.00
2023-03-26T09:53:51.496Z,34.23
2023-03-26T09:57:04.955Z,39.53
2023-03-26T10:00:36.314Z,36.50
2023-03-26T10:03:38.301Z,29.90
2023-03-26T10:06:48.558Z,30.23
2023-03-26T10:10:08.218Z,31.27
2023-03-26T10:13:14.065Z,24.80
2023-03-26T10:16:25.338Z,32.60
2023-03-26T10:19:36.725Z,30.20
2023-03-26T10:22:57.606Z,31.37
2023-03-26T10:25:49.454Z,34.33
2023-03-26T10:28:56.517Z,31.17
2023-03-26T10:31:48.313Z,30.97
2023-03-26T10:35:04.859Z,35.03
2023-03-26T10:37:56.219Z,33.70
2023-03-26T10:41:02.268Z,29.37
2023-03-26T10:44:12.263Z,26.87
2023-03-26T10:47:12.467Z,33.10
2023-03-26T10:50:28.212Z,30.67
2023-03-26T10:53:43.658Z,32.60
2023-03-26T10:56:34.884Z,28.80
2023-03-26T10:59:20.072Z,31.77
2023-03-26T11:02:30.417Z,30.57
2023-03-26T11:05:24.542Z,29.57
2023-03-26T11:08:31.969Z,35.07
2023-03-26T11:11:36.214Z,33.30
2023-03-26T11:14:34.838Z,34.70
2023-03-26T11:17:57.953Z,36.57
2023-03-26T11:21:19.485Z,29.97
2023-03-26T11:24:20.572Z,33.50
2023-03-26T11:27:16.603Z,28.00
2023-03-26T11:30:16.856Z,32.07
2023-03-26T11:33:08.085Z,31.77
2023-03-26T11:36:01.693Z,24.57
2023-03-26T11:38:50.237Z,34.83
2023-03-26T11:41:36.117Z,28.17
2023-03-26T11:44:27.212Z,33.00
2023-03-26T11:47:15.628Z,27.20
2023-03-26T11:50:03.368Z,30.77
2023-03-26T11:52:49.345Z,29.03
2023-03-26T11:55:34.750Z,31.83
2023-03-26T11:58:36.969Z,29.70
2023-03-26T12:01:27.176Z,24.50
2023-03-26T12:04:14.767Z,28.03
2023-03-26T12:07:14.783Z,23.63
2023-03-26T12:10:20.746Z,24.67
2023-03-26T12:13:33.791Z,27.27
2023-03-26T12:16:21.099Z,29.60
2023-03-26T12:19:19.384Z,32.10
2023-03-26T12:22:05.733Z,30.83
2023-03-26T12:25:01.706Z,27.03
2023-03-26T12:28:14.243Z,21.80
2023-03-26T12:31:04.976Z,26.07
2023-03-26T12:34:16.572Z,20.93
2023-03-26T12:37:03.579Z,21.33
2023-03-26T12:40:10.741Z,22.87
2023-03-26T12:44:49.203Z,21.63
2023-03-26T12:47:57.131Z,17.50
2023-03-26T12:49:38.827Z,25.40
2023-03-26T12:52:33.040Z,23.50
2023-03-26T12:55:40.408Z,18.80
2023-03-26T12:58:50.327Z,17.23
2023-03-26T13:01:41.480Z,18.40
2023-03-26T13:05:05.788Z,25.30
2023-03-26T13:08:17.499Z,17.10
2023-03-26T13:11:27.078Z,17.43
2023-03-26T13:14:35.167Z,17.70
2023-03-26T13:17:25.947Z,19.10
2023-03-26T13:20:31.634Z,17.07
2023-03-26T13:23:38.146Z,20.03
2023-03-26T13:26:50.598Z,20.77
2023-03-26T13:29:54.689Z,18.33
2023-03-26T13:33:04.298Z,19.17
2023-03-26T13:36:14.332Z,19.53
2023-03-26T13:39:31.034Z,19.50
2023-03-26T13:42:36.568Z,19.13
2023-03-26T13:45:35.549Z,19.17
2023-03-26T13:48:28.338Z,20.87
2023-03-26T13:51:24.715Z,20.87
2023-03-26T13:54:18.882Z,20.37
2023-03-26T13:57:25.769Z,22.27
2023-03-26T14:00:15.570Z,18.50
2023-03-26T14:03:20.688Z,21.00
2023-03-26T14:06:16.593Z,19.67
2023-03-26T14:09:07.420Z,20.13
2023-03-26T14:12:01.650Z,23.63
2023-03-26T14:15:07.116Z,23.00
2023-03-26T14:18:20.659Z,20.87
2023-03-26T14:21:18.225Z,17.47
2023-03-26T14:24:16.007Z,14.53
2023-03-26T14:27:11.967Z,16.10
2023-03-26T14:30:17.537Z,17.17
2023-03-26T14:33:27.459Z,16.80
2023-03-26T14:36:12.771Z,14.77
2023-03-26T14:39:11.115Z,16.40
2023-03-26T14:42:07.602Z,23.80
2023-03-26T14:45:11.380Z,21.47
2023-03-26T14:48:37.795Z,14.37
2023-03-26T14:51:45.151Z,16.13
2023-03-26T14:54:33.998Z,12.30
2023-03-26T14:57:51.897Z,14.37
2023-03-26T15:01:04.192Z,13.83
2023-03-26T15:04:28.630Z,13.23
2023-03-26T15:07:28.735Z,15.13
2023-03-26T15:10:44.464Z,15.20
2023-03-26T15:14:08.575Z,14.40
2023-03-26T15:17:14.874Z,13.17
2023-03-26T15:20:34.075Z,12.63
2023-03-26T15:23:50.029Z,13.80
2023-03-26T15:27:13.485Z,19.83
2023-03-26T15:30:01.504Z,28.90
2023-03-26T15:32:55.780Z,22.23
2023-03-26T15:35:57.822Z,25.00
2023-03-26T15:38:58.230Z,26.90
2023-03-26T15:42:12.583Z,29.37
2023-03-26T15:45:00.665Z,25.10
2023-03-26T15:48:11.068Z,23.23
2023-03-26T15:51:29.433Z,26.30
2023-03-26T15:54:19.659Z,31.30
2023-03-26T15:57:15.418Z,32.07
2023-03-26T16:00:19.277Z,26.47
2023-03-26T16:03:10.267Z,30.23
2023-03-26T16:06:24.790Z,25.83
2023-03-26T16:09:18.412Z,26.53
2023-03-26T16:12:28.536Z,28.67
2023-03-26T16:15:24.547Z,24.17
2023-03-26T16:18:09.954Z,27.90
2023-03-26T16:20:55.451Z,24.53
2023-03-26T16:23:47.637Z,25.00
2023-03-26T16:26:51.592Z,24.40
2023-03-26T16:30:00.695Z,30.60
2023-03-26T16:32:52.492Z,21.57
2023-03-26T16:36:03.808Z,33.10
2023-03-26T16:39:07.522Z,31.00
2023-03-26T16:42:05.703Z,21.70
2023-03-26T16:45:04.023Z,21.87
2023-03-26T16:48:12.143Z,23.90
2023-03-26T16:51:38.859Z,27.30
2023-03-26T16:54:23.764Z,26.43
2023-03-26T16:57:21.303Z,21.73
2023-03-26T17:00:15.493Z,24.13
2023-03-26T17:03:27.516Z,22.23
2023-03-26T17:06:31.429Z,25.17
2023-03-26T17:09:38.143Z,27.07
2023-03-26T17:12:34.822Z,23.63
2023-03-26T17:15:39.863Z,22.67
2023-03-26T17:18:46.251Z,27.87
2023-03-26T17:21:45.747Z,22.60
2023-03-26T17:24:44.120Z,23.73
2023-03-26T17:27:39.699Z,28.40
2023-03-26T17:30:43.693Z,24.30
2023-03-26T17:33:37.619Z,26.93
2023-03-26T17:36:41.166Z,23.43
2023-03-26T17:39:38.585Z,25.37
2023-03-26T17:42:35.339Z,25.30
2023-03-26T17:45:22.108Z,22.63
2023-03-26T17:48:23.510Z,24.97
2023-03-26T17:51:27.734Z,19.40
2023-03-26T17:54:35.947Z,22.70
2023-03-26T17:57:32.044Z,19.13
2023-03-26T18:00:22.106Z,21.30
2023-03-26T18:03:16.632Z,20.00
2023-03-26T18:06:07.696Z,28.70
2023-03-26T18:09:10.605Z,24.60
2023-03-26T18:12:16.518Z,21.47
2023-03-26T18:15:25.830Z,21.13
2023-03-26T18:18:16.990Z,20.07
2023-03-26T18:21:05.865Z,18.10
2023-03-26T18:23:51.747Z,21.73
2023-03-26T18:26:51.864Z,19.13
2023-03-26T18:29:37.794Z,18.30
2023-03-26T18:32:27.714Z,19.17
2023-03-26T18:35:17.666Z,25.07
2023-03-26T18:38:02.783Z,23.70
2023-03-26T18:40:55.158Z,19.67
2023-03-26T18:43:44.445Z,25.40
2023-03-26T18:46:33.035Z,18.47
2023-03-26T18:49:18.578Z,15.23
2023-03-26T18:52:03.816Z,27.70
2023-03-26T18:54:52.833Z,22.57
2023-03-26T18:57:38.328Z,17.50
2023-03-26T19:00:26.473Z,20.23
2023-03-26T19:03:15.360Z,20.97
2023-03-26T19:06:01.952Z,22.10
2023-03-26T19:08:47.938Z,23.67
2023-03-26T19:11:37.882Z,20.37
2023-03-26T19:14:23.742Z,21.20
2023-03-26T19:17:11.804Z,21.17
2023-03-26T19:19:57.709Z,22.33
2023-03-26T19:22:45.044Z,18.97
2023-03-26T19:25:49.815Z,16.80
2023-03-26T19:28:41.922Z,21.73
2023-03-26T19:31:37.174Z,16.40
2023-03-26T19:34:32.247Z,20.97
2023-03-26T19:37:26.369Z,22.93
2023-03-26T19:40:33.581Z,22.83
2023-03-26T19:43:19.292Z,17.87
2023-03-26T19:46:04.511Z,24.53
2023-03-26T19:48:52.456Z,23.43
2023-03-26T19:51:37.893Z,20.60
2023-03-26T19:54:23.033Z,20.20
2023-03-26T19:57:09.052Z,25.70
2023-03-26T19:59:54.556Z,21.43
2023-03-26T20:02:41.547Z,17.10
2023-03-26T20:05:31.948Z,23.20
2023-03-26T20:08:17.630Z,24.20
2023-03-26T20:11:02.931Z,22.97
2023-03-26T20:13:49.201Z,19.03
2023-03-26T20:16:34.631Z,24.30
2023-03-26T20:19:19.909Z,19.67
2023-03-26T20:22:07.402Z,19.47
2023-03-26T20:24:53.195Z,20.77
2023-03-26T20:27:38.482Z,20.73
2023-03-26T20:30:37.048Z,19.63
2023-03-26T20:33:26.009Z,19.70
2023-03-26T20:36:13.047Z,19.23
2023-03-26T20:38:58.703Z,17.07
2023-03-26T20:41:47.783Z,20.70
2023-03-26T20:44:34.542Z,19.87
2023-03-26T20:47:19.684Z,18.17
2023-03-26T20:50:05.780Z,15.97
2023-03-26T20:52:51.249Z,20.07
2023-03-26T20:55:36.584Z,18.57
2023-03-26T20:58:26.815Z,19.63
2023-03-26T21:01:17.523Z,17.00
2023-03-26T21:04:02.960Z,24.40
2023-03-26T21:06:48.861Z,19.13
2023-03-26T21:09:34.478Z,17.97
2023-03-26T21:12:34.843Z,20.57
2023-03-26T21:15:23.723Z,18.00
2023-03-26T21:18:09.790Z,19.00
2023-03-26T21:21:18.177Z,17.83
2023-03-26T21:24:25.121Z,14.37
2023-03-26T21:27:25.539Z,19.83
2023-03-26T21:30:14.207Z,23.67
2023-03-26T21:32:59.998Z,16.17
2023-03-26T21:35:45.555Z,20.27
2023-03-26T21:38:31.174Z,19.13
2023-03-26T21:41:47.439Z,45.33
2023-03-26T21:44:33.586Z,21.93
2023-03-26T21:47:19.010Z,17.93
2023-03-26T21:50:05.861Z,19.87
2023-03-26T21:52:51.849Z,21.33
2023-03-26T21:55:58.166Z,18.47
2023-03-26T21:59:02.267Z,17.20
2023-03-26T22:01:57.043Z,15.17
2023-03-26T22:04:54.414Z,19.93
2023-03-26T22:07:51.279Z,19.47
2023-03-26T22:10:36.259Z,17.23
2023-03-26T22:13:21.546Z,22.00
2023-03-26T22:16:08.868Z,24.40
2023-03-26T22:18:54.316Z,16.10
2023-03-26T22:21:39.991Z,20.03
2023-03-26T22:24:25.304Z,20.67
2023-03-26T22:27:10.730Z,19.73
2023-03-26T22:29:55.762Z,19.30
2023-03-26T22:32:40.952Z,21.60
2023-03-26T22:35:26.088Z,17.00
2023-03-26T22:38:11.082Z,21.37
2023-03-26T22:40:57.658Z,19.20
2023-03-26T22:43:42.848Z,21.43
2023-03-26T22:46:27.874Z,17.43
2023-03-26T22:49:13.007Z,17.27
2023-03-26T22:51:58.021Z,17.03
2023-03-26T22:54:42.973Z,19.83
2023-03-26T22:57:27.953Z,20.13
2023-03-26T23:00:13.599Z,16.10
2023-03-26T23:02:58.675Z,18.13
2023-03-26T23:05:46.883Z,19.07
2023-03-26T23:08:32.382Z,17.20
2023-03-26T23:11:19.394Z,21.80
2023-03-26T23:14:04.774Z,22.00
2023-03-26T23:16:49.586Z,30.53
2023-03-26T23:19:34.790Z,18.80
2023-03-26T23:22:19.843Z,18.80
2023-03-26T23:25:05.788Z,21.27
2023-03-26T23:27:51.119Z,21.87
2023-03-26T23:30:36.290Z,18.50
2023-03-26T23:33:24.742Z,22.30
2023-03-26T23:36:14.035Z,17.97
2023-03-26T23:38:59.151Z,14.83
2023-03-26T23:41:44.158Z,19.70
2023-03-26T23:44:29.487Z,18.27
2023-03-26T23:47:14.288Z,23.93
2023-03-26T23:49:59.672Z,18.53
2023-03-26T23:52:44.761Z,15.00
2023-03-26T23:55:29.837Z,15.20
2023-03-26T23:58:15.769Z,20.33
